Bretagne — FNBR — position and weather

sailwx.info

Track history (hours):
 
Tides and Currents Weather Stations Pressure Air Temp Water Temp Dewpoint Dewpoint Depression Visibility Wind Speed Wind Dir Waves Ship Positions

Bretagne

Operator: Brittany Ferries

Last reported at 2019-Sep-17 03:36 UTC. Time now 2019-Sep-17 08:53 UTC.
Position N 49°07' W 002°22'.

Length 151 m; beam 27 m.

Type: Ship. MMSI: 227286000.

Date/timePositionNaut miles runAvg speedWind from/ knotsBaromVisibWave heightAir tempDewpointWater temp
2019-Sep-17 03:36N 49°07' W 002°22'714.5
2019-Sep-17 03:05N 49°15' W 002°22'214.4
2019-Sep-17 02:58N 49°17' W 002°21'614.3
2019-Sep-17 02:30N 49°23' W 002°18'714.7
2019-Sep-17 02:00N 49°29' W 002°13'1715.5
2019-Sep-17 00:55N 49°45' W 002°02'613.4
2019-Sep-17 00:30N 49°49' W 001°57'612.4
2019-Sep-17 00:01N 49°54' W 001°52'815.1
2019-Sep-16 23:30N 50°00' W 001°45'815.2
2019-Sep-16 23:01N 50°07' W 001°39'714.8
2019-Sep-16 22:30N 50°13' W 001°33'714.5
2019-Sep-16 22:00N 50°19' W 001°27'714.4
2019-Sep-16 21:30N 50°25' W 001°20'714.0
2019-Sep-16 21:00N 50°31' W 001°14'713.4
2019-Sep-16 20:30N 50°36' W 001°08'612.7
2019-Sep-16 20:01N 50°41' W 001°02'713.0
2019-Sep-16 19:30N 50°47' W 001°06'2 3.3
2019-Sep-16 19:00N 50°49' W 001°06'0 0.0
2019-Sep-16 18:30N 50°49' W 001°06'0 0.0
2019-Sep-16 18:00N 50°49' W 001°06'0 0.0
2019-Sep-16 17:30N 50°49' W 001°06'1 2.1
2019-Sep-16 17:01N 50°48' W 001°07'611.2
2019-Sep-16 16:30N 50°43' W 001°03'510.6
2019-Sep-16 16:00N 50°38' W 001°06'713.8
2019-Sep-16 15:30N 50°32' W 001°11'714.2
2019-Sep-16 15:01N 50°26' W 001°17'815.2
2019-Sep-16 14:29N 50°19' W 001°24'816.8
2019-Sep-16 14:01N 50°12' W 001°30'917.9
2019-Sep-16 13:30N 50°05' W 001°38'918.3
2019-Sep-16 13:00N 49°58' W 001°47'918.6
2019-Sep-16 12:30N 49°50' W 001°56'1217.8
2019-Sep-16 11:51N 49°39' W 002°02'719.2
2019-Sep-16 11:30N 49°33' W 002°02'1019.7
2019-Sep-16 11:00N 49°23' W 002°04'918.4
2019-Sep-16 10:30N 49°14' W 001°60'1020.2
2019-Sep-16 10:00N 49°06' W 001°51'918.5
2019-Sep-16 09:30N 48°57' W 001°56'1019.5
2019-Sep-16 09:00N 48°48' W 002°00'816.7
2019-Sep-16 08:30N 48°40' W 002°02'1 2.1
2019-Sep-16 07:58N 48°38' W 002°02'0 0.0
2019-Sep-16 07:28N 48°38' W 002°02'0 0.0
2019-Sep-16 06:58N 48°38' W 002°02'0 0.0
2019-Sep-16 06:28N 48°38' W 002°02'0 0.4
2019-Sep-16 06:00N 48°38' W 002°02'511.0
2019-Sep-16 05:30N 48°43' W 002°07'815.8
2019-Sep-16 05:00N 48°49' W 002°14'816.9
2019-Sep-16 04:31N 48°56' W 002°22'713.6
2019-Sep-16 04:01N 49°03' W 002°22'713.6
2019-Sep-16 03:30N 49°10' W 002°21'714.0
2019-Sep-16 03:00N 49°16' W 002°20'713.8
2019-Sep-16 02:30N 49°23' W 002°16'714.1
2019-Sep-16 02:00N 49°29' W 002°12'714.5
2019-Sep-16 01:30N 49°36' W 002°08'816.5
2019-Sep-16 01:00N 49°44' W 002°04'714.7
2019-Sep-16 00:30N 49°49' W 001°56'612.9
2019-Sep-16 00:00N 49°54' W 001°49'815.3
2019-Sep-15 23:31N 49°60' W 001°42'816.1
2019-Sep-15 23:00N 50°07' W 001°38'815.2
2019-Sep-15 22:31N 50°14' W 001°31'714.9
2019-Sep-15 22:01N 50°20' W 001°24'714.5
2019-Sep-15 21:31N 50°26' W 001°18'713.8
2019-Sep-15 21:00N 50°31' W 001°12'713.4
2019-Sep-15 20:31N 50°37' W 001°06'611.9
2019-Sep-15 20:00N 50°42' W 001°02'612.0
2019-Sep-15 19:30N 50°47' W 001°07'1 2.7
2019-Sep-15 18:58N 50°49' W 001°06'0 0.0
2019-Sep-15 18:28N 50°49' W 001°06'0 0.0
2019-Sep-15 17:58N 50°49' W 001°06'0 0.0
2019-Sep-15 17:28N 50°49' W 001°06'0 1.0
2019-Sep-15 17:00N 50°49' W 001°06'510.4
2019-Sep-15 16:30N 50°44' W 001°04'611.2
2019-Sep-15 16:01N 50°38' W 001°05'714.9
2019-Sep-15 15:30N 50°32' W 001°12'917.0
2019-Sep-15 15:00N 50°26' W 001°21'917.3
2019-Sep-15 14:31N 50°18' W 001°28'917.3
2019-Sep-15 14:00N 50°11' W 001°35'917.2
2019-Sep-15 13:31N 50°04' W 001°42'917.4
2019-Sep-15 13:00N 49°57' W 001°50'917.7
2019-Sep-15 12:30N 49°49' W 001°58'816.7
2019-Sep-15 12:00N 49°42' W 002°03'918.0
2019-Sep-15 11:30N 49°34' W 002°09'1019.5
2019-Sep-15 11:01N 49°25' W 002°15'1019.8
2019-Sep-15 10:30N 49°16' W 002°21'1020.8
2019-Sep-15 10:01N 49°05' W 002°22'1020.7
2019-Sep-15 09:30N 48°55' W 002°20'1120.7
2019-Sep-15 08:59N 48°46' W 002°11'918.6
2019-Sep-15 08:31N 48°39' W 002°03'1 1.1
2019-Sep-15 07:40N 48°38' W 002°02'0 0.0
2019-Sep-15 07:28N 48°38' W 002°02'0 0.0
2019-Sep-15 06:28N 48°38' W 002°02'0 0.3
2019-Sep-15 06:00N 48°38' W 002°02'612.4
2019-Sep-15 05:30N 48°44' W 002°07'815.7
2019-Sep-15 05:00N 48°50' W 002°14'714.1
2019-Sep-15 04:31N 48°55' W 002°21'713.4
2019-Sep-15 04:01N 49°02' W 002°22'713.3
2019-Sep-15 03:31N 49°09' W 002°22'713.6
2019-Sep-15 03:01N 49°15' W 002°21'713.2
2019-Sep-15 02:30N 49°22' W 002°18'714.0
2019-Sep-15 02:00N 49°28' W 002°13'714.2
2019-Sep-15 01:30N 49°34' W 002°08'815.6
2019-Sep-15 01:00N 49°42' W 002°05'815.8
2019-Sep-15 00:30N 49°49' W 001°59'713.7
2019-Sep-15 00:00N 49°54' W 001°52'815.6
2019-Sep-14 23:30N 50°01' W 001°46'816.4
2019-Sep-14 23:00N 50°08' W 001°39'815.8
2019-Sep-14 22:30N 50°14' W 001°32'815.4
2019-Sep-14 22:00N 50°20' W 001°25'715.0
2019-Sep-14 21:30N 50°27' W 001°18'714.3
2019-Sep-14 21:00N 50°33' W 001°12'612.8
2019-Sep-14 20:30N 50°38' W 001°06'611.1
2019-Sep-14 20:00N 50°43' W 001°03'611.4
2019-Sep-14 19:30N 50°48' W 001°07'1 2.0
2019-Sep-14 19:00N 50°49' W 001°06'0 0.0
2019-Sep-14 18:30N 50°49' W 001°06'0 0.0
2019-Sep-14 18:00N 50°49' W 001°06'0 0.0
2019-Sep-14 17:31N 50°49' W 001°06'2 4.4
2019-Sep-14 17:01N 50°47' W 001°06'611.7
2019-Sep-14 16:30N 50°41' W 001°03'714.0
2019-Sep-14 16:00N 50°35' W 001°09'917.7
2019-Sep-14 15:30N 50°29' W 001°18'917.6
2019-Sep-14 15:00N 50°22' W 001°28'917.5
2019-Sep-14 14:30N 50°15' W 001°36'917.5
2019-Sep-14 14:00N 50°07' W 001°42'816.9
2019-Sep-14 13:30N 50°00' W 001°49'816.6
2019-Sep-14 13:00N 49°54' W 001°57'816.8
2019-Sep-14 12:30N 49°46' W 002°03'815.4
2019-Sep-14 12:00N 49°39' W 002°07'917.7
2019-Sep-14 11:30N 49°31' W 002°11'919.0
2019-Sep-14 11:00N 49°22' W 002°17'1019.2
2019-Sep-14 10:30N 49°13' W 002°22'1020.3
2019-Sep-14 10:00N 49°03' W 002°22'1120.7
2019-Sep-14 09:29N 48°52' W 002°20'1020.6
2019-Sep-14 09:00N 48°44' W 002°11'811.7
2019-Sep-14 08:18N 48°38' W 002°02'0 0.0
2019-Sep-14 07:57N 48°38' W 002°02'0 0.0
2019-Sep-14 07:27N 48°38' W 002°02'0 0.0
2019-Sep-14 07:00N 48°38' W 002°02'0 0.1
2019-Sep-14 06:03N 48°38' W 002°02'0 3.3
2019-Sep-14 05:59N 48°38' W 002°02'715.4
2019-Sep-14 05:30N 48°45' W 002°08'815.4
2019-Sep-14 05:00N 48°51' W 002°15'611.5
2019-Sep-14 04:29N 48°54' W 002°23'612.2
2019-Sep-14 03:59N 49°00' W 002°22'612.1
2019-Sep-14 03:29N 49°06' W 002°22'612.8
2019-Sep-14 02:59N 49°13' W 002°21'612.7
2019-Sep-14 02:30N 49°19' W 002°20'714.0
2019-Sep-14 02:00N 49°25' W 002°15'814.6
2019-Sep-14 01:27N 49°33' W 002°11'715.8
2019-Sep-14 00:59N 49°40' W 002°06'816.9
2019-Sep-14 00:30N 49°47' W 002°02'714.5
2019-Sep-14 00:01N 49°53' W 001°56'816.1
2019-Sep-13 23:30N 49°60' W 001°49'917.1
2019-Sep-13 23:00N 50°07' W 001°41'816.4
2019-Sep-13 22:30N 50°13' W 001°33'815.9
2019-Sep-13 22:00N 50°20' W 001°26'815.5
2019-Sep-13 21:30N 50°26' W 001°18'714.8
2019-Sep-13 21:01N 50°32' W 001°12'714.1
2019-Sep-13 20:30N 50°38' W 001°06'611.3
2019-Sep-13 20:00N 50°43' W 001°03'611.4
2019-Sep-13 19:31N 50°49' W 001°07'1 1.3
2019-Sep-13 18:58N 50°49' W 001°06'0 0.0
2019-Sep-13 18:28N 50°49' W 001°06'0 0.0
2019-Sep-13 17:58N 50°49' W 001°06'0 0.0
2019-Sep-13 17:28N 50°49' W 001°06'2 3.4
2019-Sep-13 17:00N 50°47' W 001°06'611.4
2019-Sep-13 16:30N 50°42' W 001°03'611.2
2019-Sep-13 16:00N 50°37' W 001°07'917.9
2019-Sep-13 15:30N 50°30' W 001°15'918.5
2019-Sep-13 15:00N 50°22' W 001°22'917.8
2019-Sep-13 14:30N 50°14' W 001°30'816.9
2019-Sep-13 14:00N 50°09' W 001°40'917.1
2019-Sep-13 13:30N 50°01' W 001°47'817.0
2019-Sep-13 13:01N 49°54' W 001°54'816.5
2019-Sep-13 12:30N 49°47' W 002°00'814.1
2019-Sep-13 11:56N 49°39' W 002°04'716.8
2019-Sep-13 11:29N 49°33' W 002°09'918.4
2019-Sep-13 11:00N 49°25' W 002°15'1219.0
2019-Sep-13 10:23N 49°14' W 002°22'920.3
2019-Sep-13 09:55N 49°04' W 002°22'920.7
2019-Sep-13 09:30N 48°56' W 002°20'1021.0
2019-Sep-13 09:01N 48°47' W 002°11'1018.8
2019-Sep-13 08:29N 48°39' W 002°03'1 1.1
2019-Sep-13 07:28N 48°38' W 002°02'0 0.0
2019-Sep-13 06:49N 48°38' W 002°02'0 0.0
2019-Sep-13 06:25N 48°38' W 002°02'0 0.2
2019-Sep-13 06:00N 48°38' W 002°02'612.7
2019-Sep-13 05:30N 48°44' W 002°07'917.7
2019-Sep-13 05:00N 48°51' W 002°16'816.8
2019-Sep-13 04:30N 48°58' W 002°22'612.7
2019-Sep-13 04:00N 49°04' W 002°22'713.2
2019-Sep-13 03:29N 49°11' W 002°22'612.8
2019-Sep-13 03:00N 49°17' W 002°20'1312.9
2019-Sep-13 02:00N 49°29' W 002°12'713.7
2019-Sep-13 01:30N 49°35' W 002°08'815.4
2019-Sep-13 01:01N 49°43' W 002°04'714.8
2019-Sep-13 00:31N 49°49' W 001°59'815.3
2019-Sep-13 00:00N 49°56' W 001°52'917.2
2019-Sep-12 23:30N 50°03' W 001°45'816.7
2019-Sep-12 23:00N 50°10' W 001°37'816.2
2019-Sep-12 22:30N 50°16' W 001°30'815.7
2019-Sep-12 22:00N 50°23' W 001°23'815.1
2019-Sep-12 21:30N 50°29' W 001°15'714.4
2019-Sep-12 21:00N 50°35' W 001°09'713.9
2019-Sep-12 20:30N 50°40' W 001°03'612.1
2019-Sep-12 20:00N 50°46' W 001°06'2 4.9
2019-Sep-12 19:30N 50°49' W 001°07'1 1.7
2019-Sep-12 18:58N 50°49' W 001°06'0 0.0
2019-Sep-12 18:28N 50°49' W 001°06'0 0.0
2019-Sep-12 17:58N 50°49' W 001°06'0 0.0
2019-Sep-12 17:28N 50°49' W 001°06'0 0.6
2019-Sep-12 17:01N 50°49' W 001°06'5 9.7
2019-Sep-12 16:30N 50°44' W 001°04'612.8
2019-Sep-12 16:00N 50°38' W 001°06'918.7
2019-Sep-12 15:30N 50°30' W 001°15'1019.0
2019-Sep-12 15:01N 50°23' W 001°25'918.4
2019-Sep-12 14:30N 50°16' W 001°34'918.1
2019-Sep-12 14:01N 50°08' W 001°42'917.8
2019-Sep-12 13:30N 50°01' W 001°48'917.4
2019-Sep-12 13:00N 49°53' W 001°55'917.0
2019-Sep-12 12:30N 49°45' W 001°60'814.7
2019-Sep-12 11:59N 49°38' W 002°05'1017.3
2019-Sep-12 11:25N 49°30' W 002°12'818.4
2019-Sep-12 11:01N 49°23' W 002°17'1618.8
2019-Sep-12 10:09N 49°07' W 002°21'620.2
2019-Sep-12 09:53N 49°01' W 002°21'820.5
2019-Sep-12 09:30N 48°54' W 002°20'1020.7
2019-Sep-12 09:00N 48°46' W 002°10'815.6
2019-Sep-12 08:30N 48°39' W 002°03'1 1.5
2019-Sep-12 07:33N 48°38' W 002°02'0 0.0
2019-Sep-12 07:21N 48°38' W 002°02'0 0.0
2019-Sep-12 06:59N 48°38' W 002°02'0 0.0
2019-Sep-12 06:23N 48°38' W 002°02'0 0.2
2019-Sep-12 05:59N 48°38' W 002°02'814.5
2019-Sep-12 05:27N 48°45' W 002°08'817.8
2019-Sep-12 05:00N 48°51' W 002°16'916.4
2019-Sep-12 04:28N 48°59' W 002°22'613.1
2019-Sep-12 04:00N 49°05' W 002°22'712.2
2019-Sep-12 03:26N 49°12' W 002°22'611.8
2019-Sep-12 02:57N 49°18' W 002°20'511.6
2019-Sep-12 02:30N 49°22' W 002°17'612.5
2019-Sep-12 02:00N 49°28' W 002°13'1213.4
2019-Sep-12 01:08N 49°39' W 002°07'615.5
2019-Sep-12 00:45N 49°44' W 002°03'314.5
2019-Sep-12 00:31N 49°47' W 001°60'713.3
2019-Sep-12 00:00N 49°53' W 001°54'714.1
2019-Sep-11 23:30N 49°58' W 001°47'816.8
2019-Sep-11 23:01N 50°06' W 001°41'816.4
2019-Sep-11 22:30N 50°12' W 001°34'816.0
2019-Sep-11 22:00N 50°18' W 001°26'815.5
2019-Sep-11 21:29N 50°25' W 001°18'715.0
2019-Sep-11 21:00N 50°31' W 001°13'714.8
2019-Sep-11 20:30N 50°37' W 001°07'612.1
2019-Sep-11 20:00N 50°43' W 001°03'611.2
2019-Sep-11 19:31N 50°48' W 001°07'1 2.0
2019-Sep-11 19:00N 50°49' W 001°06'0 0.0
2019-Sep-11 18:30N 50°49' W 001°06'0 0.0
2019-Sep-11 18:00N 50°49' W 001°06'0 0.0
2019-Sep-11 17:30N 50°49' W 001°06'0 0.0
2019-Sep-11 17:00N 50°49' W 001°06'0 0.0
2019-Sep-11 16:30N 50°49' W 001°06'0 0.0
2019-Sep-11 15:57N 50°49' W 001°06'0 0.0
2019-Sep-11 15:27N 50°49' W 001°06'0 0.0
2019-Sep-11 14:57N 50°49' W 001°06'0 0.0
2019-Sep-11 14:27N 50°49' W 001°06'0 0.0
2019-Sep-11 13:57N 50°49' W 001°06'0 0.0
2019-Sep-11 13:27N 50°49' W 001°06'0 0.0
2019-Sep-11 12:57N 50°49' W 001°06'0 0.0
2019-Sep-11 12:27N 50°49' W 001°06'0 0.0
2019-Sep-11 11:57N 50°49' W 001°06'0 0.0
2019-Sep-11 11:27N 50°49' W 001°06'0 0.0
2019-Sep-11 10:57N 50°49' W 001°06'0 0.0
2019-Sep-11 10:27N 50°49' W 001°06'0 0.0
2019-Sep-11 09:57N 50°49' W 001°06'0 0.0
2019-Sep-11 09:27N 50°49' W 001°06'0 0.0
2019-Sep-11 08:57N 50°49' W 001°06'0 0.0
2019-Sep-11 08:28N 50°49' W 001°06'0 0.0
2019-Sep-11 07:58N 50°49' W 001°06'0 0.0
2019-Sep-11 07:28N 50°49' W 001°06'0 0.0
2019-Sep-11 06:58N 50°49' W 001°06'0 0.7
2019-Sep-11 06:30N 50°49' W 001°06'510.0
2019-Sep-11 06:00N 50°44' W 001°04'612.6
2019-Sep-11 05:30N 50°38' W 001°06'713.9
2019-Sep-11 05:01N 50°32' W 001°12'713.6
2019-Sep-11 04:30N 50°27' W 001°20'713.2
2019-Sep-11 04:00N 50°23' W 001°28'612.7
2019-Sep-11 03:30N 50°18' W 001°34'815.2
2019-Sep-11 03:01N 50°11' W 001°38'816.2
2019-Sep-11 02:30N 50°03' W 001°42'815.7
2019-Sep-11 02:00N 49°57' W 001°49'611.6
2019-Sep-11 01:30N 49°52' W 001°54'510.7
2019-Sep-11 01:00N 49°47' W 001°59'8 8.6
2019-Sep-11 00:03N 49°40' W 002°04'1 9.3
2019-Sep-10 23:59N 49°39' W 002°05'5 9.3
2019-Sep-10 23:30N 49°35' W 002°08'5 9.6
2019-Sep-10 23:00N 49°31' W 002°11'510.3
2019-Sep-10 22:30N 49°26' W 002°14'510.5
2019-Sep-10 22:00N 49°22' W 002°18'8 0.4
2019-Sep-10 02:49N 49°15' W 002°21'411.2
2019-Sep-10 02:29N 49°18' W 002°20'611.3
2019-Sep-10 02:00N 49°23' W 002°17'612.4
2019-Sep-10 01:30N 49°29' W 002°13'912.8
2019-Sep-10 00:49N 49°37' W 002°09'814.1
2019-Sep-10 00:16N 49°44' W 002°03'413.8
2019-Sep-10 00:00N 49°48' W 002°01'713.6
2019-Sep-09 23:30N 49°53' W 001°56'816.5
2019-Sep-09 23:00N 50°00' W 001°49'917.8
2019-Sep-09 22:30N 50°07' W 001°40'917.4
2019-Sep-09 22:01N 50°14' W 001°31'917.1
2019-Sep-09 21:30N 50°21' W 001°24'916.9
2019-Sep-09 21:00N 50°28' W 001°16'816.9
2019-Sep-09 20:31N 50°35' W 001°09'815.5
2019-Sep-09 20:01N 50°42' W 001°03'713.5
2019-Sep-09 19:31N 50°48' W 001°07'1 2.1
2019-Sep-09 18:59N 50°49' W 001°06'0 0.0
2019-Sep-09 18:29N 50°49' W 001°06'0 0.0
2019-Sep-09 17:59N 50°49' W 001°06'0 0.0
2019-Sep-09 17:29N 50°49' W 001°06'1 1.1
2019-Sep-09 17:00N 50°49' W 001°07'511.0
2019-Sep-09 16:30N 50°44' W 001°03'713.8
2019-Sep-09 16:01N 50°37' W 001°07'917.7
2019-Sep-09 15:30N 50°30' W 001°15'1018.7
2019-Sep-09 14:59N 50°22' W 001°23'1020.2
2019-Sep-09 14:30N 50°13' W 001°30'1020.0
2019-Sep-09 14:01N 50°05' W 001°39'1019.7
2019-Sep-09 13:30N 49°58' W 001°50'1019.4
2019-Sep-09 13:00N 49°50' W 001°59'1218.8
2019-Sep-09 12:24N 49°39' W 002°06'718.5
2019-Sep-09 12:00N 49°33' W 002°10'1118.5
2019-Sep-09 11:24N 49°23' W 002°17'5 0.6
2019-Sep-09 02:37N 49°18' W 002°20'710.6
2019-Sep-09 01:58N 49°24' W 002°15'511.2
2019-Sep-09 01:30N 49°29' W 002°12'7114.6
2019-Sep-08 20:38N 50°29' W 001°14'217.1
2019-Sep-08 20:30N 50°31' W 001°13'917.2
2019-Sep-08 20:00N 50°39' W 001°05'613.0
2019-Sep-08 19:30N 50°45' W 001°05'4 7.2
2019-Sep-08 19:00N 50°49' W 001°06'0 0.0
2019-Sep-08 18:29N 50°49' W 001°06'0 0.0
2019-Sep-08 18:00N 50°49' W 001°06'0 0.0
2019-Sep-08 17:29N 50°49' W 001°06'0 0.8
2019-Sep-08 17:00N 50°49' W 001°06'510.7
2019-Sep-08 16:30N 50°44' W 001°03'714.3
2019-Sep-08 16:00N 50°37' W 001°07'917.4
2019-Sep-08 15:30N 50°30' W 001°15'7018.9
2019-Sep-08 11:48N 49°30' W 002°12'1019.3
2019-Sep-08 11:17N 49°21' W 002°18'6 0.7
2019-Sep-08 02:53N 49°15' W 002°22'410.8
2019-Sep-08 02:30N 49°20' W 002°21'6 9.8
2019-Sep-08 01:56N 49°24' W 002°16'510.4
2019-Sep-08 01:29N 49°28' W 002°13'6414.6
2019-Sep-07 21:05N 50°22' W 001°17'217.4
2019-Sep-07 20:58N 50°24' W 001°16'817.5
2019-Sep-07 20:30N 50°31' W 001°11'917.7
2019-Sep-07 20:01N 50°39' W 001°05'611.7
2019-Sep-07 19:30N 50°45' W 001°05'4 8.1
2019-Sep-07 19:01N 50°49' W 001°06'0 0.1
2019-Sep-07 18:30N 50°49' W 001°06'0 0.0
2019-Sep-07 18:00N 50°49' W 001°06'0 0.0
2019-Sep-07 17:28N 50°49' W 001°06'0 0.7
2019-Sep-07 17:00N 50°49' W 001°06'510.9
2019-Sep-07 16:30N 50°44' W 001°03'713.4
2019-Sep-07 16:00N 50°37' W 001°07'815.0
2019-Sep-07 15:30N 50°31' W 001°12'816.2
2019-Sep-07 15:00N 50°24' W 001°20'  
Track history (hours):
 
Tides and Currents Weather Stations Pressure Air Temp Water Temp Dewpoint Dewpoint Depression Visibility Wind Speed Wind Dir Waves Ship Positions

Bretagne

Operator: Brittany Ferries

Last reported at 2019-Sep-17 03:36 UTC. Time now 2019-Sep-17 08:53 UTC.
Position N 49°07' W 002°22'.

Length 151 m; beam 27 m.

Type: Ship. MMSI: 227286000.

Date/timePositionNaut miles runAvg speedWind from/ knotsBaromVisibWave heightAir tempDewpointWater temp
2019-Sep-17 03:36N 49°07' W 002°22'714.5
2019-Sep-17 03:05N 49°15' W 002°22'214.4
2019-Sep-17 02:58N 49°17' W 002°21'614.3
2019-Sep-17 02:30N 49°23' W 002°18'714.7
2019-Sep-17 02:00N 49°29' W 002°13'1715.5
2019-Sep-17 00:55N 49°45' W 002°02'613.4
2019-Sep-17 00:30N 49°49' W 001°57'612.4
2019-Sep-17 00:01N 49°54' W 001°52'815.1
2019-Sep-16 23:30N 50°00' W 001°45'815.2
2019-Sep-16 23:01N 50°07' W 001°39'714.8
2019-Sep-16 22:30N 50°13' W 001°33'714.5
2019-Sep-16 22:00N 50°19' W 001°27'714.4
2019-Sep-16 21:30N 50°25' W 001°20'714.0
2019-Sep-16 21:00N 50°31' W 001°14'713.4
2019-Sep-16 20:30N 50°36' W 001°08'612.7
2019-Sep-16 20:01N 50°41' W 001°02'713.0
2019-Sep-16 19:30N 50°47' W 001°06'2 3.3
2019-Sep-16 19:00N 50°49' W 001°06'0 0.0
2019-Sep-16 18:30N 50°49' W 001°06'0 0.0
2019-Sep-16 18:00N 50°49' W 001°06'0 0.0
2019-Sep-16 17:30N 50°49' W 001°06'1 2.1
2019-Sep-16 17:01N 50°48' W 001°07'611.2
2019-Sep-16 16:30N 50°43' W 001°03'510.6
2019-Sep-16 16:00N 50°38' W 001°06'713.8
2019-Sep-16 15:30N 50°32' W 001°11'714.2
2019-Sep-16 15:01N 50°26' W 001°17'815.2
2019-Sep-16 14:29N 50°19' W 001°24'816.8
2019-Sep-16 14:01N 50°12' W 001°30'917.9
2019-Sep-16 13:30N 50°05' W 001°38'918.3
2019-Sep-16 13:00N 49°58' W 001°47'918.6
2019-Sep-16 12:30N 49°50' W 001°56'1217.8
2019-Sep-16 11:51N 49°39' W 002°02'719.2
2019-Sep-16 11:30N 49°33' W 002°02'1019.7
2019-Sep-16 11:00N 49°23' W 002°04'918.4
2019-Sep-16 10:30N 49°14' W 001°60'1020.2
2019-Sep-16 10:00N 49°06' W 001°51'918.5
2019-Sep-16 09:30N 48°57' W 001°56'1019.5
2019-Sep-16 09:00N 48°48' W 002°00'816.7
2019-Sep-16 08:30N 48°40' W 002°02'1 2.1
2019-Sep-16 07:58N 48°38' W 002°02'0 0.0
2019-Sep-16 07:28N 48°38' W 002°02'0 0.0
2019-Sep-16 06:58N 48°38' W 002°02'0 0.0
2019-Sep-16 06:28N 48°38' W 002°02'0 0.4
2019-Sep-16 06:00N 48°38' W 002°02'511.0
2019-Sep-16 05:30N 48°43' W 002°07'815.8
2019-Sep-16 05:00N 48°49' W 002°14'816.9
2019-Sep-16 04:31N 48°56' W 002°22'713.6
2019-Sep-16 04:01N 49°03' W 002°22'713.6
2019-Sep-16 03:30N 49°10' W 002°21'714.0
2019-Sep-16 03:00N 49°16' W 002°20'713.8
2019-Sep-16 02:30N 49°23' W 002°16'714.1
2019-Sep-16 02:00N 49°29' W 002°12'714.5
2019-Sep-16 01:30N 49°36' W 002°08'816.5
2019-Sep-16 01:00N 49°44' W 002°04'714.7
2019-Sep-16 00:30N 49°49' W 001°56'612.9
2019-Sep-16 00:00N 49°54' W 001°49'815.3
2019-Sep-15 23:31N 49°60' W 001°42'816.1
2019-Sep-15 23:00N 50°07' W 001°38'815.2
2019-Sep-15 22:31N 50°14' W 001°31'714.9
2019-Sep-15 22:01N 50°20' W 001°24'714.5
2019-Sep-15 21:31N 50°26' W 001°18'713.8
2019-Sep-15 21:00N 50°31' W 001°12'713.4
2019-Sep-15 20:31N 50°37' W 001°06'611.9
2019-Sep-15 20:00N 50°42' W 001°02'612.0
2019-Sep-15 19:30N 50°47' W 001°07'1 2.7
2019-Sep-15 18:58N 50°49' W 001°06'0 0.0
2019-Sep-15 18:28N 50°49' W 001°06'0 0.0
2019-Sep-15 17:58N 50°49' W 001°06'0 0.0
2019-Sep-15 17:28N 50°49' W 001°06'0 1.0
2019-Sep-15 17:00N 50°49' W 001°06'510.4
2019-Sep-15 16:30N 50°44' W 001°04'611.2
2019-Sep-15 16:01N 50°38' W 001°05'714.9
2019-Sep-15 15:30N 50°32' W 001°12'917.0
2019-Sep-15 15:00N 50°26' W 001°21'917.3
2019-Sep-15 14:31N 50°18' W 001°28'917.3
2019-Sep-15 14:00N 50°11' W 001°35'917.2
2019-Sep-15 13:31N 50°04' W 001°42'917.4
2019-Sep-15 13:00N 49°57' W 001°50'917.7
2019-Sep-15 12:30N 49°49' W 001°58'816.7
2019-Sep-15 12:00N 49°42' W 002°03'918.0
2019-Sep-15 11:30N 49°34' W 002°09'1019.5
2019-Sep-15 11:01N 49°25' W 002°15'1019.8
2019-Sep-15 10:30N 49°16' W 002°21'1020.8
2019-Sep-15 10:01N 49°05' W 002°22'1020.7
2019-Sep-15 09:30N 48°55' W 002°20'1120.7
2019-Sep-15 08:59N 48°46' W 002°11'918.6
2019-Sep-15 08:31N 48°39' W 002°03'1 1.1
2019-Sep-15 07:40N 48°38' W 002°02'0 0.0
2019-Sep-15 07:28N 48°38' W 002°02'0 0.0
2019-Sep-15 06:28N 48°38' W 002°02'0 0.3
2019-Sep-15 06:00N 48°38' W 002°02'612.4
2019-Sep-15 05:30N 48°44' W 002°07'815.7
2019-Sep-15 05:00N 48°50' W 002°14'714.1
2019-Sep-15 04:31N 48°55' W 002°21'713.4
2019-Sep-15 04:01N 49°02' W 002°22'713.3
2019-Sep-15 03:31N 49°09' W 002°22'713.6
2019-Sep-15 03:01N 49°15' W 002°21'713.2
2019-Sep-15 02:30N 49°22' W 002°18'714.0
2019-Sep-15 02:00N 49°28' W 002°13'714.2
2019-Sep-15 01:30N 49°34' W 002°08'815.6
2019-Sep-15 01:00N 49°42' W 002°05'815.8
2019-Sep-15 00:30N 49°49' W 001°59'713.7
2019-Sep-15 00:00N 49°54' W 001°52'815.6
2019-Sep-14 23:30N 50°01' W 001°46'816.4
2019-Sep-14 23:00N 50°08' W 001°39'815.8
2019-Sep-14 22:30N 50°14' W 001°32'815.4
2019-Sep-14 22:00N 50°20' W 001°25'715.0
2019-Sep-14 21:30N 50°27' W 001°18'714.3
2019-Sep-14 21:00N 50°33' W 001°12'612.8
2019-Sep-14 20:30N 50°38' W 001°06'611.1
2019-Sep-14 20:00N 50°43' W 001°03'611.4
2019-Sep-14 19:30N 50°48' W 001°07'1 2.0
2019-Sep-14 19:00N 50°49' W 001°06'0 0.0
2019-Sep-14 18:30N 50°49' W 001°06'0 0.0
2019-Sep-14 18:00N 50°49' W 001°06'0 0.0
2019-Sep-14 17:31N 50°49' W 001°06'2 4.4
2019-Sep-14 17:01N 50°47' W 001°06'611.7
2019-Sep-14 16:30N 50°41' W 001°03'714.0
2019-Sep-14 16:00N 50°35' W 001°09'917.7
2019-Sep-14 15:30N 50°29' W 001°18'917.6
2019-Sep-14 15:00N 50°22' W 001°28'917.5
2019-Sep-14 14:30N 50°15' W 001°36'917.5
2019-Sep-14 14:00N 50°07' W 001°42'816.9
2019-Sep-14 13:30N 50°00' W 001°49'816.6
2019-Sep-14 13:00N 49°54' W 001°57'816.8
2019-Sep-14 12:30N 49°46' W 002°03'815.4
2019-Sep-14 12:00N 49°39' W 002°07'917.7
2019-Sep-14 11:30N 49°31' W 002°11'919.0
2019-Sep-14 11:00N 49°22' W 002°17'1019.2
2019-Sep-14 10:30N 49°13' W 002°22'1020.3
2019-Sep-14 10:00N 49°03' W 002°22'1120.7
2019-Sep-14 09:29N 48°52' W 002°20'1020.6
2019-Sep-14 09:00N 48°44' W 002°11'811.7
2019-Sep-14 08:18N 48°38' W 002°02'0 0.0
2019-Sep-14 07:57N 48°38' W 002°02'0 0.0
2019-Sep-14 07:27N 48°38' W 002°02'0 0.0
2019-Sep-14 07:00N 48°38' W 002°02'0 0.1
2019-Sep-14 06:03N 48°38' W 002°02'0 3.3
2019-Sep-14 05:59N 48°38' W 002°02'715.4
2019-Sep-14 05:30N 48°45' W 002°08'815.4
2019-Sep-14 05:00N 48°51' W 002°15'611.5
2019-Sep-14 04:29N 48°54' W 002°23'612.2
2019-Sep-14 03:59N 49°00' W 002°22'612.1
2019-Sep-14 03:29N 49°06' W 002°22'612.8
2019-Sep-14 02:59N 49°13' W 002°21'612.7
2019-Sep-14 02:30N 49°19' W 002°20'714.0
2019-Sep-14 02:00N 49°25' W 002°15'814.6
2019-Sep-14 01:27N 49°33' W 002°11'715.8
2019-Sep-14 00:59N 49°40' W 002°06'816.9
2019-Sep-14 00:30N 49°47' W 002°02'714.5
2019-Sep-14 00:01N 49°53' W 001°56'816.1
2019-Sep-13 23:30N 49°60' W 001°49'917.1
2019-Sep-13 23:00N 50°07' W 001°41'816.4
2019-Sep-13 22:30N 50°13' W 001°33'815.9
2019-Sep-13 22:00N 50°20' W 001°26'815.5
2019-Sep-13 21:30N 50°26' W 001°18'714.8
2019-Sep-13 21:01N 50°32' W 001°12'714.1
2019-Sep-13 20:30N 50°38' W 001°06'611.3
2019-Sep-13 20:00N 50°43' W 001°03'611.4
2019-Sep-13 19:31N 50°49' W 001°07'1 1.3
2019-Sep-13 18:58N 50°49' W 001°06'0 0.0
2019-Sep-13 18:28N 50°49' W 001°06'0 0.0
2019-Sep-13 17:58N 50°49' W 001°06'0 0.0
2019-Sep-13 17:28N 50°49' W 001°06'2 3.4
2019-Sep-13 17:00N 50°47' W 001°06'611.4
2019-Sep-13 16:30N 50°42' W 001°03'611.2
2019-Sep-13 16:00N 50°37' W 001°07'917.9
2019-Sep-13 15:30N 50°30' W 001°15'918.5
2019-Sep-13 15:00N 50°22' W 001°22'917.8
2019-Sep-13 14:30N 50°14' W 001°30'816.9
2019-Sep-13 14:00N 50°09' W 001°40'917.1
2019-Sep-13 13:30N 50°01' W 001°47'817.0
2019-Sep-13 13:01N 49°54' W 001°54'816.5
2019-Sep-13 12:30N 49°47' W 002°00'814.1
2019-Sep-13 11:56N 49°39' W 002°04'716.8
2019-Sep-13 11:29N 49°33' W 002°09'918.4
2019-Sep-13 11:00N 49°25' W 002°15'1219.0
2019-Sep-13 10:23N 49°14' W 002°22'920.3
2019-Sep-13 09:55N 49°04' W 002°22'920.7
2019-Sep-13 09:30N 48°56' W 002°20'1021.0
2019-Sep-13 09:01N 48°47' W 002°11'1018.8
2019-Sep-13 08:29N 48°39' W 002°03'1 1.1
2019-Sep-13 07:28N 48°38' W 002°02'0 0.0
2019-Sep-13 06:49N 48°38' W 002°02'0 0.0
2019-Sep-13 06:25N 48°38' W 002°02'0 0.2
2019-Sep-13 06:00N 48°38' W 002°02'612.7
2019-Sep-13 05:30N 48°44' W 002°07'917.7
2019-Sep-13 05:00N 48°51' W 002°16'816.8
2019-Sep-13 04:30N 48°58' W 002°22'612.7
2019-Sep-13 04:00N 49°04' W 002°22'713.2
2019-Sep-13 03:29N 49°11' W 002°22'612.8
2019-Sep-13 03:00N 49°17' W 002°20'1312.9
2019-Sep-13 02:00N 49°29' W 002°12'713.7
2019-Sep-13 01:30N 49°35' W 002°08'815.4
2019-Sep-13 01:01N 49°43' W 002°04'714.8
2019-Sep-13 00:31N 49°49' W 001°59'815.3
2019-Sep-13 00:00N 49°56' W 001°52'917.2
2019-Sep-12 23:30N 50°03' W 001°45'816.7
2019-Sep-12 23:00N 50°10' W 001°37'816.2
2019-Sep-12 22:30N 50°16' W 001°30'815.7
2019-Sep-12 22:00N 50°23' W 001°23'815.1
2019-Sep-12 21:30N 50°29' W 001°15'714.4
2019-Sep-12 21:00N 50°35' W 001°09'713.9
2019-Sep-12 20:30N 50°40' W 001°03'612.1
2019-Sep-12 20:00N 50°46' W 001°06'2 4.9
2019-Sep-12 19:30N 50°49' W 001°07'1 1.7
2019-Sep-12 18:58N 50°49' W 001°06'0 0.0
2019-Sep-12 18:28N 50°49' W 001°06'0 0.0
2019-Sep-12 17:58N 50°49' W 001°06'0 0.0
2019-Sep-12 17:28N 50°49' W 001°06'0 0.6
2019-Sep-12 17:01N 50°49' W 001°06'5 9.7
2019-Sep-12 16:30N 50°44' W 001°04'612.8
2019-Sep-12 16:00N 50°38' W 001°06'918.7
2019-Sep-12 15:30N 50°30' W 001°15'1019.0
2019-Sep-12 15:01N 50°23' W 001°25'918.4
2019-Sep-12 14:30N 50°16' W 001°34'918.1
2019-Sep-12 14:01N 50°08' W 001°42'917.8
2019-Sep-12 13:30N 50°01' W 001°48'917.4
2019-Sep-12 13:00N 49°53' W 001°55'917.0
2019-Sep-12 12:30N 49°45' W 001°60'814.7
2019-Sep-12 11:59N 49°38' W 002°05'1017.3
2019-Sep-12 11:25N 49°30' W 002°12'818.4
2019-Sep-12 11:01N 49°23' W 002°17'1618.8
2019-Sep-12 10:09N 49°07' W 002°21'620.2
2019-Sep-12 09:53N 49°01' W 002°21'820.5
2019-Sep-12 09:30N 48°54' W 002°20'1020.7
2019-Sep-12 09:00N 48°46' W 002°10'815.6
2019-Sep-12 08:30N 48°39' W 002°03'1 1.5
2019-Sep-12 07:33N 48°38' W 002°02'0 0.0
2019-Sep-12 07:21N 48°38' W 002°02'0 0.0
2019-Sep-12 06:59N 48°38' W 002°02'0 0.0
2019-Sep-12 06:23N 48°38' W 002°02'0 0.2
2019-Sep-12 05:59N 48°38' W 002°02'814.5
2019-Sep-12 05:27N 48°45' W 002°08'817.8
2019-Sep-12 05:00N 48°51' W 002°16'916.4
2019-Sep-12 04:28N 48°59' W 002°22'613.1
2019-Sep-12 04:00N 49°05' W 002°22'712.2
2019-Sep-12 03:26N 49°12' W 002°22'611.8
2019-Sep-12 02:57N 49°18' W 002°20'511.6
2019-Sep-12 02:30N 49°22' W 002°17'612.5
2019-Sep-12 02:00N 49°28' W 002°13'1213.4
2019-Sep-12 01:08N 49°39' W 002°07'615.5
2019-Sep-12 00:45N 49°44' W 002°03'314.5
2019-Sep-12 00:31N 49°47' W 001°60'713.3
2019-Sep-12 00:00N 49°53' W 001°54'714.1
2019-Sep-11 23:30N 49°58' W 001°47'816.8
2019-Sep-11 23:01N 50°06' W 001°41'816.4
2019-Sep-11 22:30N 50°12' W 001°34'816.0
2019-Sep-11 22:00N 50°18' W 001°26'815.5
2019-Sep-11 21:29N 50°25' W 001°18'715.0
2019-Sep-11 21:00N 50°31' W 001°13'714.8
2019-Sep-11 20:30N 50°37' W 001°07'612.1
2019-Sep-11 20:00N 50°43' W 001°03'611.2
2019-Sep-11 19:31N 50°48' W 001°07'1 2.0
2019-Sep-11 19:00N 50°49' W 001°06'0 0.0
2019-Sep-11 18:30N 50°49' W 001°06'0 0.0
2019-Sep-11 18:00N 50°49' W 001°06'0 0.0
2019-Sep-11 17:30N 50°49' W 001°06'0 0.0
2019-Sep-11 17:00N 50°49' W 001°06'0 0.0
2019-Sep-11 16:30N 50°49' W 001°06'0 0.0
2019-Sep-11 15:57N 50°49' W 001°06'0 0.0
2019-Sep-11 15:27N 50°49' W 001°06'0 0.0
2019-Sep-11 14:57N 50°49' W 001°06'0 0.0
2019-Sep-11 14:27N 50°49' W 001°06'0 0.0
2019-Sep-11 13:57N 50°49' W 001°06'0 0.0
2019-Sep-11 13:27N 50°49' W 001°06'0 0.0
2019-Sep-11 12:57N 50°49' W 001°06'0 0.0
2019-Sep-11 12:27N 50°49' W 001°06'0 0.0
2019-Sep-11 11:57N 50°49' W 001°06'0 0.0
2019-Sep-11 11:27N 50°49' W 001°06'0 0.0
2019-Sep-11 10:57N 50°49' W 001°06'0 0.0
2019-Sep-11 10:27N 50°49' W 001°06'0 0.0
2019-Sep-11 09:57N 50°49' W 001°06'0 0.0
2019-Sep-11 09:27N 50°49' W 001°06'0 0.0
2019-Sep-11 08:57N 50°49' W 001°06'0 0.0
2019-Sep-11 08:28N 50°49' W 001°06'0 0.0
2019-Sep-11 07:58N 50°49' W 001°06'0 0.0
2019-Sep-11 07:28N 50°49' W 001°06'0 0.0
2019-Sep-11 06:58N 50°49' W 001°06'0 0.7
2019-Sep-11 06:30N 50°49' W 001°06'510.0
2019-Sep-11 06:00N 50°44' W 001°04'612.6
2019-Sep-11 05:30N 50°38' W 001°06'713.9
2019-Sep-11 05:01N 50°32' W 001°12'713.6
2019-Sep-11 04:30N 50°27' W 001°20'713.2
2019-Sep-11 04:00N 50°23' W 001°28'612.7
2019-Sep-11 03:30N 50°18' W 001°34'815.2
2019-Sep-11 03:01N 50°11' W 001°38'816.2
2019-Sep-11 02:30N 50°03' W 001°42'815.7
2019-Sep-11 02:00N 49°57' W 001°49'611.6
2019-Sep-11 01:30N 49°52' W 001°54'510.7
2019-Sep-11 01:00N 49°47' W 001°59'8 8.6
2019-Sep-11 00:03N 49°40' W 002°04'1 9.3
2019-Sep-10 23:59N 49°39' W 002°05'5 9.3
2019-Sep-10 23:30N 49°35' W 002°08'5 9.6
2019-Sep-10 23:00N 49°31' W 002°11'510.3
2019-Sep-10 22:30N 49°26' W 002°14'510.5
2019-Sep-10 22:00N 49°22' W 002°18'8 0.4
2019-Sep-10 02:49N 49°15' W 002°21'411.2
2019-Sep-10 02:29N 49°18' W 002°20'611.3
2019-Sep-10 02:00N 49°23' W 002°17'612.4
2019-Sep-10 01:30N 49°29' W 002°13'912.8
2019-Sep-10 00:49N 49°37' W 002°09'814.1
2019-Sep-10 00:16N 49°44' W 002°03'413.8
2019-Sep-10 00:00N 49°48' W 002°01'713.6
2019-Sep-09 23:30N 49°53' W 001°56'816.5
2019-Sep-09 23:00N 50°00' W 001°49'917.8
2019-Sep-09 22:30N 50°07' W 001°40'917.4
2019-Sep-09 22:01N 50°14' W 001°31'917.1
2019-Sep-09 21:30N 50°21' W 001°24'916.9
2019-Sep-09 21:00N 50°28' W 001°16'816.9
2019-Sep-09 20:31N 50°35' W 001°09'815.5
2019-Sep-09 20:01N 50°42' W 001°03'713.5
2019-Sep-09 19:31N 50°48' W 001°07'1 2.1
2019-Sep-09 18:59N 50°49' W 001°06'0 0.0
2019-Sep-09 18:29N 50°49' W 001°06'0 0.0
2019-Sep-09 17:59N 50°49' W 001°06'0 0.0
2019-Sep-09 17:29N 50°49' W 001°06'1 1.1
2019-Sep-09 17:00N 50°49' W 001°07'511.0
2019-Sep-09 16:30N 50°44' W 001°03'713.8
2019-Sep-09 16:01N 50°37' W 001°07'917.7
2019-Sep-09 15:30N 50°30' W 001°15'1018.7
2019-Sep-09 14:59N 50°22' W 001°23'1020.2
2019-Sep-09 14:30N 50°13' W 001°30'1020.0
2019-Sep-09 14:01N 50°05' W 001°39'1019.7
2019-Sep-09 13:30N 49°58' W 001°50'1019.4
2019-Sep-09 13:00N 49°50' W 001°59'1218.8
2019-Sep-09 12:24N 49°39' W 002°06'718.5
2019-Sep-09 12:00N 49°33' W 002°10'1118.5
2019-Sep-09 11:24N 49°23' W 002°17'5 0.6
2019-Sep-09 02:37N 49°18' W 002°20'710.6
2019-Sep-09 01:58N 49°24' W 002°15'511.2
2019-Sep-09 01:30N 49°29' W 002°12'7114.6
2019-Sep-08 20:38N 50°29' W 001°14'217.1
2019-Sep-08 20:30N 50°31' W 001°13'917.2
2019-Sep-08 20:00N 50°39' W 001°05'613.0
2019-Sep-08 19:30N 50°45' W 001°05'4 7.2
2019-Sep-08 19:00N 50°49' W 001°06'0 0.0
2019-Sep-08 18:29N 50°49' W 001°06'0 0.0
2019-Sep-08 18:00N 50°49' W 001°06'0 0.0
2019-Sep-08 17:29N 50°49' W 001°06'0 0.8
2019-Sep-08 17:00N 50°49' W 001°06'510.7
2019-Sep-08 16:30N 50°44' W 001°03'714.3
2019-Sep-08 16:00N 50°37' W 001°07'917.4
2019-Sep-08 15:30N 50°30' W 001°15'7018.9
2019-Sep-08 11:48N 49°30' W 002°12'1019.3
2019-Sep-08 11:17N 49°21' W 002°18'6 0.7
2019-Sep-08 02:53N 49°15' W 002°22'410.8
2019-Sep-08 02:30N 49°20' W 002°21'6 9.8
2019-Sep-08 01:56N 49°24' W 002°16'510.4
2019-Sep-08 01:29N 49°28' W 002°13'6414.6
2019-Sep-07 21:05N 50°22' W 001°17'217.4
2019-Sep-07 20:58N 50°24' W 001°16'817.5
2019-Sep-07 20:30N 50°31' W 001°11'917.7
2019-Sep-07 20:01N 50°39' W 001°05'611.7
2019-Sep-07 19:30N 50°45' W 001°05'4 8.1
2019-Sep-07 19:01N 50°49' W 001°06'0 0.1
2019-Sep-07 18:30N 50°49' W 001°06'0 0.0
2019-Sep-07 18:00N 50°49' W 001°06'0 0.0
2019-Sep-07 17:28N 50°49' W 001°06'0 0.7
2019-Sep-07 17:00N 50°49' W 001°06'510.9
2019-Sep-07 16:30N 50°44' W 001°03'713.4
2019-Sep-07 16:00N 50°37' W 001°07'815.0
2019-Sep-07 15:30N 50°31' W 001°12'816.2
2019-Sep-07 15:00N 50°24' W 001°20'  

Dump ship's entire track history